Oxford, MS

12:31 PM CST on December 04, 2016 (GMT -0600)
University-Oxford | | Change Station

Elev 453 ft 34.38 °N, 89.54 °W | Updated 16 minutes ago

Overcast
Overcast
46 °F
Feels Like 46 °F
N
0
Wind Variable Wind from North

Today
High -- | Low -- °F
--% Chance of Precip.
Yesterday
High -- | Low -- °F
Precip. -- in
Pressure 29.97 in
Visibility 10.0 miles
Clouds Overcast 500 ft
Dew Point 45 °F
Humidity 93%
Rainfall 0.99 in
Snow Depth Not available.
6:49 AM 4:47 PM
Waxing Crescent, 24% visible
METAR KUOX 041815Z AUTO 00000KT 10SM OVC005 08/07 A2997 RMK AO2
Pressure 29.97 in
Visibility 10.0 miles
Clouds Overcast 500 ft
Dew Point 45 °F
Humidity 93%
Rainfall 0.99 in
Snow Depth Not available.
6:49 AM 4:47 PM
Waxing Crescent, 24% visible
METAR KUOX 041815Z AUTO 00000KT 10SM OVC005 08/07 A2997 RMK AO2

10-Day Weather Forecast

Almanac

Astronomy

Dec. 04, 2016 Rise Set
Actual Time
Civil Twilight
Nautical Twilight
Astronomical Twilight
Moon
Length of Visible Light
Length of Day
Tomorrow will be .
, % of the Moon is Illuminated

Today's Extremes

State Highs State Lows

Community

WunderPhotos

Upload Photos

1,955,640 photos uploaded!

WunderBlog® & News

Nearby

Air Quality

  Air Quality AQ Index Pollutant
Not available.

Snow Depth

Station Depth Elevation

Earthquake Activity

City Distance Mag. Time & Date
Minimum magnitude displayed is 2.5.

Coastal Water Temperatures

Place Temperature

Stations

Nearby Weather Stations

Station Location Temp. Windchill Dew Point Humidity Wind Precip. Elev Updated Type
                   

Watches & Warnings

There are currently no watches in effect.